createdAt,value
2023-03-13T00:01:49.121Z,19.93
2023-03-13T00:04:17.836Z,19.93
2023-03-13T00:06:51.038Z,19.93
2023-03-13T00:09:19.330Z,19.93
2023-03-13T00:11:51.776Z,19.93
2023-03-13T00:14:21.600Z,19.93
2023-03-13T00:16:54.405Z,19.92
2023-03-13T00:19:26.635Z,19.92
2023-03-13T00:21:56.166Z,19.92
2023-03-13T00:24:31.173Z,19.92
2023-03-13T00:27:03.819Z,19.92
2023-03-13T00:29:37.881Z,19.92
2023-03-13T00:32:06.401Z,19.92
2023-03-13T00:34:36.701Z,19.92
2023-03-13T00:37:08.110Z,19.92
2023-03-13T00:39:41.077Z,19.92
2023-03-13T00:42:21.346Z,19.92
2023-03-13T00:44:52.220Z,19.91
2023-03-13T00:47:23.298Z,19.91
2023-03-13T00:49:55.325Z,19.91
2023-03-13T00:52:30.484Z,19.91
2023-03-13T00:55:01.949Z,19.91
2023-03-13T00:57:43.047Z,19.91
2023-03-13T01:00:13.633Z,19.91
2023-03-13T01:02:45.340Z,19.91
2023-03-13T01:05:15.761Z,19.91
2023-03-13T01:07:48.373Z,19.91
2023-03-13T01:10:20.814Z,19.91
2023-03-13T01:13:02.047Z,19.91
2023-03-13T01:15:37.516Z,19.91
2023-03-13T01:18:07.484Z,19.90
2023-03-13T01:20:40.436Z,19.91
2023-03-13T01:23:15.505Z,19.91
2023-03-13T01:25:49.886Z,19.90
2023-03-13T01:28:20.907Z,19.91
2023-03-13T01:30:58.212Z,19.90
2023-03-13T01:33:28.339Z,19.91
2023-03-13T01:36:06.440Z,19.91
2023-03-13T01:38:36.679Z,19.91
2023-03-13T01:41:09.150Z,19.91
2023-03-13T01:43:38.215Z,19.91
2023-03-13T01:46:19.938Z,19.91
2023-03-13T01:49:05.605Z,19.91
2023-03-13T01:51:46.551Z,19.91
2023-03-13T01:54:25.618Z,19.91
2023-03-13T01:57:11.248Z,19.91
2023-03-13T01:59:48.967Z,19.91
2023-03-13T02:02:19.814Z,19.91
2023-03-13T02:04:54.406Z,19.91
2023-03-13T02:07:48.129Z,19.90
2023-03-13T02:10:20.823Z,19.91
2023-03-13T02:12:53.258Z,19.91
2023-03-13T02:15:27.398Z,19.91
2023-03-13T02:17:58.121Z,19.91
2023-03-13T02:20:31.586Z,19.91
2023-03-13T02:23:02.762Z,19.91
2023-03-13T02:26:11.384Z,19.91
2023-03-13T02:28:41.512Z,19.91
2023-03-13T02:31:16.363Z,19.91
2023-03-13T02:33:46.167Z,19.91
2023-03-13T02:39:34.040Z,19.91
2023-03-13T02:40:39.366Z,19.91
2023-03-13T02:42:06.254Z,19.91
2023-03-13T02:44:43.048Z,19.91
2023-03-13T02:47:15.337Z,19.91
2023-03-13T02:53:01.770Z,19.90
2023-03-13T02:55:39.084Z,19.91
2023-03-13T02:58:09.242Z,19.92
2023-03-13T03:00:40.027Z,19.92
2023-03-13T03:03:11.479Z,19.93
2023-03-13T03:05:41.021Z,19.93
2023-03-13T03:08:12.698Z,19.92
2023-03-13T03:10:43.344Z,19.92
2023-03-13T03:13:15.980Z,19.93
2023-03-13T03:15:46.077Z,19.92
2023-03-13T03:18:17.383Z,19.92
2023-03-13T03:25:01.206Z,19.90
2023-03-13T03:27:37.635Z,19.90
2023-03-13T03:30:09.523Z,19.90
2023-03-13T03:32:40.061Z,19.90
2023-03-13T03:35:11.388Z,19.90
2023-03-13T03:37:42.621Z,19.90
2023-03-13T03:40:11.259Z,19.90
2023-03-13T03:42:40.335Z,19.90
2023-03-13T03:45:08.953Z,19.90
2023-03-13T03:47:38.987Z,19.90
2023-03-13T03:50:12.832Z,19.90
2023-03-13T03:52:52.462Z,19.90
2023-03-13T03:55:24.745Z,19.91
2023-03-13T03:57:55.025Z,19.91
2023-03-13T04:00:41.485Z,19.91
2023-03-13T04:03:12.702Z,19.91
2023-03-13T04:05:45.741Z,19.91
2023-03-13T04:08:19.882Z,19.91
2023-03-13T04:11:15.343Z,19.91
2023-03-13T04:13:51.212Z,19.91
2023-03-13T04:17:05.553Z,19.90
2023-03-13T04:19:40.098Z,19.91
2023-03-13T04:23:49.902Z,19.91
2023-03-13T04:25:28.965Z,19.90
2023-03-13T04:28:13.167Z,19.90
2023-03-13T04:33:40.263Z,19.90
2023-03-13T04:36:27.067Z,19.90
2023-03-13T04:39:08.946Z,19.90
2023-03-13T04:41:59.359Z,19.89
2023-03-13T04:47:50.946Z,19.89
2023-03-13T04:50:39.894Z,19.89
2023-03-13T04:53:50.043Z,19.88
2023-03-13T04:56:52.632Z,19.88
2023-03-13T04:59:31.694Z,19.88
2023-03-13T05:02:15.223Z,19.88
2023-03-13T05:05:17.081Z,19.87
2023-03-13T05:08:07.144Z,19.87
2023-03-13T05:10:50.765Z,19.86
2023-03-13T05:14:06.916Z,19.86
2023-03-13T05:16:51.571Z,19.86
2023-03-13T05:19:46.118Z,19.85
2023-03-13T05:22:32.583Z,19.86
2023-03-13T05:25:21.975Z,19.86
2023-03-13T05:28:12.101Z,19.86
2023-03-13T05:30:58.234Z,19.86
2023-03-13T05:33:54.355Z,19.86
2023-03-13T05:36:24.608Z,19.86
2023-03-13T05:39:05.092Z,19.86
2023-03-13T05:42:31.541Z,19.86
2023-03-13T05:45:18.406Z,19.85
2023-03-13T05:48:27.160Z,19.85
2023-03-13T05:51:15.520Z,19.85
2023-03-13T05:54:13.752Z,19.85
2023-03-13T05:57:15.933Z,19.85
2023-03-13T06:00:01.670Z,19.86
2023-03-13T06:03:16.142Z,19.86
2023-03-13T06:05:47.813Z,19.86
2023-03-13T06:08:33.904Z,19.86
2023-03-13T06:11:05.176Z,19.86
2023-03-13T06:14:58.025Z,19.86
2023-03-13T06:16:50.300Z,19.86
2023-03-13T06:19:25.472Z,19.86
2023-03-13T06:21:55.138Z,19.87
2023-03-13T06:24:30.999Z,19.88
2023-03-13T06:27:01.071Z,19.87
2023-03-13T06:29:29.843Z,19.85
2023-03-13T06:31:58.228Z,19.85
2023-03-13T06:34:27.795Z,19.86
2023-03-13T06:36:59.929Z,19.85
2023-03-13T06:39:29.639Z,19.86
2023-03-13T06:41:58.582Z,19.85
2023-03-13T06:44:28.403Z,19.86
2023-03-13T06:46:57.417Z,19.86
2023-03-13T06:49:47.546Z,19.86
2023-03-13T06:52:19.421Z,19.87
2023-03-13T06:54:50.868Z,19.87
2023-03-13T06:57:18.316Z,19.87
2023-03-13T06:59:46.240Z,19.87
2023-03-13T07:02:22.252Z,19.88
2023-03-13T07:04:52.676Z,19.88
2023-03-13T07:07:31.276Z,19.88
2023-03-13T07:13:32.284Z,19.89
2023-03-13T07:16:10.251Z,19.89
2023-03-13T07:18:46.179Z,19.89
2023-03-13T07:21:17.093Z,19.90
2023-03-13T07:23:50.220Z,19.90
2023-03-13T07:26:19.182Z,19.89
2023-03-13T07:28:48.940Z,19.89
2023-03-13T07:31:27.805Z,19.90
2023-03-13T07:33:57.827Z,19.90
2023-03-13T07:36:32.240Z,19.90
2023-03-13T07:39:00.272Z,19.91
2023-03-13T07:41:27.484Z,19.91
2023-03-13T07:44:01.331Z,19.92
2023-03-13T07:46:33.335Z,19.92
2023-03-13T07:49:14.428Z,19.92
2023-03-13T07:51:44.653Z,19.93
2023-03-13T07:54:20.488Z,19.93
2023-03-13T07:56:50.342Z,19.94
2023-03-13T07:59:19.529Z,19.94
2023-03-13T08:04:37.805Z,19.94
2023-03-13T08:07:15.516Z,19.94
2023-03-13T08:09:48.570Z,19.95
2023-03-13T08:12:53.750Z,19.96
2023-03-13T08:15:27.364Z,19.96
2023-03-13T08:17:59.792Z,19.97
2023-03-13T08:20:28.406Z,19.97
2023-03-13T08:23:02.041Z,19.98
2023-03-13T08:25:34.014Z,19.99
2023-03-13T08:28:04.963Z,19.99
2023-03-13T08:30:35.278Z,19.99
2023-03-13T08:33:07.806Z,20.00
2023-03-13T08:35:40.913Z,20.00
2023-03-13T08:38:09.130Z,20.00
2023-03-13T08:40:38.434Z,20.00
2023-03-13T08:43:10.051Z,20.01
2023-03-13T08:46:08.068Z,20.01
2023-03-13T08:48:36.323Z,20.01
2023-03-13T08:51:13.459Z,20.02
2023-03-13T08:53:47.642Z,20.02
2023-03-13T08:56:22.915Z,20.02
2023-03-13T08:59:05.438Z,20.03
2023-03-13T09:01:42.049Z,20.04
2023-03-13T09:04:13.205Z,20.05
2023-03-13T09:06:46.452Z,20.05
2023-03-13T09:10:04.735Z,20.06
2023-03-13T09:12:55.515Z,20.06
2023-03-13T09:18:47.519Z,20.07
2023-03-13T09:21:24.232Z,20.07
2023-03-13T09:24:00.591Z,20.07
2023-03-13T09:27:34.825Z,20.07
2023-03-13T09:30:01.830Z,20.07
2023-03-13T09:35:48.428Z,20.07
2023-03-13T09:36:55.659Z,20.08
2023-03-13T09:38:22.755Z,20.08
2023-03-13T09:41:06.001Z,20.08
2023-03-13T09:43:49.671Z,20.09
2023-03-13T09:46:51.370Z,20.09
2023-03-13T09:49:37.401Z,20.09
2023-03-13T09:52:25.780Z,20.09
2023-03-13T09:55:17.509Z,20.07
2023-03-13T09:57:56.001Z,20.07
2023-03-13T10:00:36.476Z,20.06
2023-03-13T10:03:07.839Z,20.05
2023-03-13T10:05:34.776Z,20.05
2023-03-13T10:08:18.782Z,20.04
2023-03-13T10:10:54.390Z,20.05
2023-03-13T10:13:33.445Z,20.04
2023-03-13T10:16:09.812Z,20.04
2023-03-13T10:18:38.020Z,20.03
2023-03-13T10:21:20.087Z,20.04
2023-03-13T10:24:12.601Z,20.04
2023-03-13T10:26:39.530Z,20.05
2023-03-13T10:29:23.672Z,20.05
2023-03-13T10:32:02.022Z,20.05
2023-03-13T10:34:51.596Z,20.05
2023-03-13T10:37:40.532Z,20.05
2023-03-13T10:40:25.717Z,20.05
2023-03-13T10:42:59.928Z,20.05
2023-03-13T10:45:32.003Z,20.07
2023-03-13T10:48:11.550Z,20.09
2023-03-13T10:50:43.114Z,20.10
2023-03-13T10:53:30.241Z,20.12
2023-03-13T10:56:06.098Z,20.14
2023-03-13T10:58:42.666Z,20.15
2023-03-13T11:01:42.369Z,20.17
2023-03-13T11:04:29.101Z,20.18
2023-03-13T11:07:02.947Z,20.19
2023-03-13T11:09:30.351Z,20.20
2023-03-13T11:12:04.786Z,20.21
2023-03-13T11:14:31.707Z,20.23
2023-03-13T11:17:32.867Z,20.23
2023-03-13T11:20:28.667Z,20.24
2023-03-13T11:23:30.390Z,20.25
2023-03-13T11:26:18.406Z,20.25
2023-03-13T11:29:01.344Z,20.26
2023-03-13T11:31:33.089Z,20.26
2023-03-13T11:34:07.146Z,20.27
2023-03-13T11:36:49.147Z,20.27
2023-03-13T11:39:50.774Z,20.27
2023-03-13T11:42:26.384Z,20.28
2023-03-13T11:45:30.836Z,20.29
2023-03-13T11:48:09.342Z,20.29
2023-03-13T11:50:46.888Z,20.29
2023-03-13T11:53:42.160Z,20.29
2023-03-13T11:56:18.361Z,20.29
2023-03-13T11:59:20.445Z,20.30
2023-03-13T12:01:54.482Z,20.30
2023-03-13T12:04:24.294Z,20.30
2023-03-13T12:06:59.313Z,20.30
2023-03-13T12:09:32.986Z,20.31
2023-03-13T12:12:05.586Z,20.30
2023-03-13T12:14:39.975Z,20.31
2023-03-13T12:17:12.338Z,20.31
2023-03-13T12:20:11.997Z,20.30
2023-03-13T12:22:46.981Z,20.30
2023-03-13T12:25:39.655Z,20.29
2023-03-13T12:28:24.223Z,20.28
2023-03-13T12:31:22.254Z,20.28
2023-03-13T12:34:22.601Z,20.28
2023-03-13T12:37:13.306Z,20.27
2023-03-13T12:39:51.068Z,20.26
2023-03-13T12:42:44.375Z,20.26
2023-03-13T12:45:25.350Z,20.24
2023-03-13T12:48:05.165Z,20.24
2023-03-13T12:51:09.565Z,20.24
2023-03-13T12:54:14.642Z,20.23
2023-03-13T12:56:56.352Z,20.23
2023-03-13T12:59:31.283Z,20.23
2023-03-13T13:02:03.971Z,20.23
2023-03-13T13:04:34.986Z,20.23
2023-03-13T13:07:08.322Z,20.22
2023-03-13T13:09:59.968Z,20.22
2023-03-13T13:12:27.015Z,20.21
2023-03-13T13:14:58.107Z,20.22
2023-03-13T13:17:28.242Z,20.22
2023-03-13T13:19:56.489Z,20.23
2023-03-13T13:22:38.971Z,20.24
2023-03-13T13:25:11.907Z,20.24
2023-03-13T13:27:38.952Z,20.22
2023-03-13T13:30:30.494Z,20.21
2023-03-13T13:33:28.440Z,20.19
2023-03-13T13:36:10.537Z,20.17
2023-03-13T13:38:40.588Z,20.16
2023-03-13T13:41:10.543Z,20.16
2023-03-13T13:43:40.343Z,20.15
2023-03-13T13:46:29.392Z,20.14
2023-03-13T13:49:20.550Z,20.13
2023-03-13T13:52:02.392Z,20.13
2023-03-13T13:54:33.818Z,20.12
2023-03-13T13:57:08.146Z,20.12
2023-03-13T13:59:47.166Z,20.11
2023-03-13T14:02:24.065Z,20.10
2023-03-13T14:05:08.432Z,20.10
2023-03-13T14:07:49.300Z,20.09
2023-03-13T14:10:25.165Z,20.09
2023-03-13T14:12:54.878Z,20.08
2023-03-13T14:15:23.207Z,20.07
2023-03-13T14:17:51.547Z,20.07
2023-03-13T14:20:24.475Z,20.07
2023-03-13T14:22:53.839Z,20.06
2023-03-13T14:25:22.740Z,20.05
2023-03-13T14:27:50.989Z,20.04
2023-03-13T14:30:20.588Z,20.04
2023-03-13T14:32:48.179Z,20.04
2023-03-13T14:35:19.707Z,20.03
2023-03-13T14:37:49.474Z,20.03
2023-03-13T14:40:19.461Z,20.03
2023-03-13T14:42:49.642Z,20.03
2023-03-13T14:45:25.852Z,20.02
2023-03-13T14:47:53.644Z,20.03
2023-03-13T14:50:24.514Z,20.04
2023-03-13T14:52:55.290Z,20.04
2023-03-13T14:55:22.098Z,20.03
2023-03-13T14:58:01.310Z,20.04
2023-03-13T15:00:32.663Z,20.04
2023-03-13T15:03:21.962Z,20.05
2023-03-13T15:06:12.047Z,20.05
2023-03-13T15:08:42.587Z,20.05
2023-03-13T15:11:32.823Z,20.06
2023-03-13T15:13:59.958Z,20.05
2023-03-13T15:16:28.448Z,20.05
2023-03-13T15:18:56.389Z,20.06
2023-03-13T15:21:23.343Z,20.05
2023-03-13T15:23:56.501Z,20.05
2023-03-13T15:26:24.957Z,20.06
2023-03-13T15:28:52.493Z,20.05
2023-03-13T15:31:23.013Z,20.05
2023-03-13T15:33:57.027Z,20.06
2023-03-13T15:36:24.857Z,20.05
2023-03-13T15:38:52.172Z,20.05
2023-03-13T15:41:21.143Z,20.05
2023-03-13T15:43:52.732Z,20.05
2023-03-13T15:46:21.312Z,20.06
2023-03-13T15:48:48.870Z,20.06
2023-03-13T15:51:17.569Z,20.06
2023-03-13T15:53:46.536Z,20.05
2023-03-13T15:56:20.003Z,20.05
2023-03-13T15:58:49.437Z,20.04
2023-03-13T16:01:18.163Z,20.04
2023-03-13T16:03:45.266Z,20.04
2023-03-13T16:06:20.775Z,20.03
2023-03-13T16:08:47.787Z,20.03
2023-03-13T16:11:16.937Z,20.03
2023-03-13T16:13:45.567Z,20.03
2023-03-13T16:16:24.915Z,20.03
2023-03-13T16:18:52.997Z,20.03
2023-03-13T16:21:23.352Z,20.03
2023-03-13T16:23:50.581Z,20.02
2023-03-13T16:26:30.705Z,20.02
2023-03-13T16:28:58.556Z,20.02
2023-03-13T16:31:33.479Z,20.01
2023-03-13T16:34:02.437Z,20.00
2023-03-13T16:36:33.167Z,20.01
2023-03-13T16:39:01.980Z,20.00
2023-03-13T16:41:29.983Z,20.01
2023-03-13T16:43:57.388Z,20.00
2023-03-13T16:46:55.553Z,20.00
2023-03-13T16:49:31.267Z,19.99
2023-03-13T16:51:59.012Z,19.99
2023-03-13T16:54:26.191Z,19.99
2023-03-13T16:56:53.200Z,19.99
2023-03-13T16:59:20.212Z,20.00
2023-03-13T17:01:47.411Z,20.02
2023-03-13T17:04:14.355Z,20.04
2023-03-13T17:06:44.806Z,20.06
2023-03-13T17:09:15.638Z,20.07
2023-03-13T17:11:43.328Z,20.08
2023-03-13T17:14:10.978Z,20.09
2023-03-13T17:16:45.696Z,20.09
2023-03-13T17:19:15.041Z,20.08
2023-03-13T17:21:42.054Z,20.08
2023-03-13T17:24:09.154Z,20.09
2023-03-13T17:26:38.631Z,20.10
2023-03-13T17:29:08.082Z,20.10
2023-03-13T17:31:38.802Z,20.11
2023-03-13T17:34:07.195Z,20.11
2023-03-13T17:36:35.145Z,20.11
2023-03-13T17:39:04.701Z,20.10
2023-03-13T17:41:34.036Z,20.10
2023-03-13T17:44:01.189Z,20.11
2023-03-13T17:46:35.087Z,20.11
2023-03-13T17:49:02.316Z,20.12
2023-03-13T17:51:31.935Z,20.13
2023-03-13T17:53:59.558Z,20.14
2023-03-13T17:56:29.821Z,20.15
2023-03-13T17:58:59.047Z,20.15
2023-03-13T18:01:30.150Z,20.14
2023-03-13T18:03:58.384Z,20.13
2023-03-13T18:06:28.947Z,20.13
2023-03-13T18:08:59.120Z,20.14
2023-03-13T18:11:27.014Z,20.15
2023-03-13T18:13:54.140Z,20.16
2023-03-13T18:16:30.518Z,20.17
2023-03-13T18:18:58.922Z,20.16
2023-03-13T18:21:26.211Z,20.15
2023-03-13T18:23:54.688Z,20.13
2023-03-13T18:26:23.400Z,20.11
2023-03-13T18:28:50.824Z,20.09
2023-03-13T18:31:18.549Z,20.08
2023-03-13T18:33:47.653Z,20.07
2023-03-13T18:36:18.459Z,20.07
2023-03-13T18:38:49.017Z,20.06
2023-03-13T18:41:19.882Z,20.06
2023-03-13T18:43:49.215Z,20.06
2023-03-13T18:46:35.526Z,20.08
2023-03-13T18:49:06.547Z,20.09
2023-03-13T18:51:53.000Z,20.10
2023-03-13T18:54:24.049Z,20.11
2023-03-13T18:57:03.424Z,20.12
2023-03-13T18:59:44.193Z,20.14
2023-03-13T19:02:23.454Z,20.14
2023-03-13T19:04:52.432Z,20.16
2023-03-13T19:07:36.746Z,20.17
2023-03-13T19:10:30.114Z,20.17
2023-03-13T19:12:58.142Z,20.17
2023-03-13T19:15:29.800Z,20.17
2023-03-13T19:18:09.225Z,20.18
2023-03-13T19:20:39.327Z,20.19
2023-03-13T19:23:13.348Z,20.19
2023-03-13T19:25:47.335Z,20.20
2023-03-13T19:28:29.672Z,20.20
2023-03-13T19:31:03.884Z,20.21
2023-03-13T19:33:34.555Z,20.20
2023-03-13T19:36:01.633Z,20.21
2023-03-13T19:38:28.586Z,20.22
2023-03-13T19:40:55.495Z,20.22
2023-03-13T19:43:22.516Z,20.22
2023-03-13T19:45:49.469Z,20.22
2023-03-13T19:48:16.406Z,20.22
2023-03-13T19:50:43.339Z,20.22
2023-03-13T19:53:10.207Z,20.23
2023-03-13T19:55:37.186Z,20.22
2023-03-13T19:58:06.868Z,20.23
2023-03-13T20:00:34.128Z,20.23
2023-03-13T20:03:01.511Z,20.23
2023-03-13T20:05:28.485Z,20.23
2023-03-13T20:07:55.539Z,20.23
2023-03-13T20:10:22.645Z,20.23
2023-03-13T20:12:49.629Z,20.22
2023-03-13T20:15:17.177Z,20.21
2023-03-13T20:17:44.102Z,20.21
2023-03-13T20:20:11.745Z,20.20
2023-03-13T20:22:39.125Z,20.20
2023-03-13T20:25:06.208Z,20.18
2023-03-13T20:27:35.186Z,20.18
2023-03-13T20:30:02.196Z,20.17
2023-03-13T20:32:29.172Z,20.18
2023-03-13T20:34:56.222Z,20.21
2023-03-13T20:37:23.209Z,20.23
2023-03-13T20:39:50.156Z,20.23
2023-03-13T20:42:17.169Z,20.23
2023-03-13T20:44:44.191Z,20.25
2023-03-13T20:47:11.140Z,20.26
2023-03-13T20:49:41.112Z,20.27
2023-03-13T20:52:08.377Z,20.27
2023-03-13T20:54:35.927Z,20.25
2023-03-13T20:57:02.862Z,20.25
2023-03-13T20:59:29.870Z,20.25
2023-03-13T21:01:56.824Z,20.23
2023-03-13T21:04:23.779Z,20.22
2023-03-13T21:06:50.898Z,20.21
2023-03-13T21:09:17.962Z,20.21
2023-03-13T21:11:44.854Z,20.20
2023-03-13T21:14:11.824Z,20.20
2023-03-13T21:16:39.053Z,20.19
2023-03-13T21:19:06.157Z,20.15
2023-03-13T21:21:33.116Z,20.14
2023-03-13T21:24:00.168Z,20.13
2023-03-13T21:26:27.305Z,20.13
2023-03-13T21:28:54.348Z,20.13
2023-03-13T21:31:21.472Z,20.14
2023-03-13T21:33:48.834Z,20.13
2023-03-13T21:36:17.792Z,20.13
2023-03-13T21:38:44.896Z,20.14
2023-03-13T21:41:15.693Z,20.14
2023-03-13T21:43:43.438Z,20.14
2023-03-13T21:46:12.887Z,20.15
2023-03-13T21:48:41.564Z,20.14
2023-03-13T21:51:09.308Z,20.15
2023-03-13T21:53:37.377Z,20.15
2023-03-13T21:56:04.634Z,20.16
2023-03-13T21:58:31.552Z,20.16
2023-03-13T22:00:59.494Z,20.16
2023-03-13T22:03:26.980Z,20.16
2023-03-13T22:05:54.136Z,20.17
2023-03-13T22:08:21.366Z,20.16
2023-03-13T22:10:50.078Z,20.17
2023-03-13T22:13:17.181Z,20.17
2023-03-13T22:15:46.497Z,20.18
2023-03-13T22:18:15.388Z,20.17
2023-03-13T22:20:43.616Z,20.18
2023-03-13T22:23:12.262Z,20.18
2023-03-13T22:25:40.655Z,20.19
2023-03-13T22:28:08.143Z,20.19
2023-03-13T22:30:35.446Z,20.20
2023-03-13T22:33:03.989Z,20.19
2023-03-13T22:35:30.964Z,20.19
2023-03-13T22:37:58.159Z,20.20
2023-03-13T22:40:25.262Z,20.20
2023-03-13T22:42:52.239Z,20.20
2023-03-13T22:45:19.889Z,20.20
2023-03-13T22:47:46.784Z,20.20
2023-03-13T22:50:14.460Z,20.19
2023-03-13T22:52:42.035Z,20.19
2023-03-13T22:55:09.442Z,20.20
2023-03-13T22:57:36.538Z,20.20
2023-03-13T23:00:05.410Z,20.19
2023-03-13T23:02:32.376Z,20.20
2023-03-13T23:05:01.330Z,20.20
2023-03-13T23:07:29.868Z,20.20
2023-03-13T23:09:57.690Z,20.20
2023-03-13T23:12:25.613Z,20.20
2023-03-13T23:14:53.075Z,20.20
2023-03-13T23:17:20.209Z,20.20
2023-03-13T23:19:47.398Z,20.20
2023-03-13T23:22:18.334Z,20.20
2023-03-13T23:24:45.378Z,20.19
2023-03-13T23:27:13.332Z,20.19
2023-03-13T23:29:40.595Z,20.20
2023-03-13T23:32:08.153Z,20.20
2023-03-13T23:34:36.305Z,20.20
2023-03-13T23:37:03.533Z,20.20
2023-03-13T23:39:30.805Z,20.20
2023-03-13T23:41:57.808Z,20.20
2023-03-13T23:44:25.841Z,20.20
2023-03-13T23:46:56.250Z,20.20
2023-03-13T23:49:23.182Z,20.21
2023-03-13T23:51:50.056Z,20.20
2023-03-13T23:54:17.532Z,20.20
2023-03-13T23:56:44.563Z,20.20
2023-03-13T23:59:11.937Z,20.20
